createdAt,value
2018-11-26T00:00:51.055Z,99310.00
2018-11-26T00:05:54.053Z,99317.00
2018-11-26T00:12:02.840Z,99317.00
2018-11-26T00:17:05.857Z,99309.00
2018-11-26T00:22:08.803Z,99317.00
2018-11-26T00:27:11.755Z,99324.00
2018-11-26T00:32:14.638Z,99325.00
2018-11-26T00:37:17.525Z,99329.00
2018-11-26T00:42:20.420Z,99321.00
2018-11-26T00:47:23.364Z,99321.00
2018-11-26T00:52:26.299Z,99327.00
2018-11-26T00:57:29.251Z,99311.00
2018-11-26T01:02:32.188Z,99300.00
2018-11-26T01:07:35.130Z,99295.00
2018-11-26T01:12:38.157Z,99307.00
2018-11-26T01:17:41.087Z,99312.00
2018-11-26T01:22:43.968Z,99320.00
2018-11-26T01:27:46.904Z,99322.00
2018-11-26T01:32:49.833Z,99322.00
2018-11-26T01:37:52.761Z,99331.00
2018-11-26T01:42:55.745Z,99326.00
2018-11-26T01:47:58.755Z,99330.00
2018-11-26T01:53:01.953Z,99327.00
2018-11-26T01:58:04.966Z,99328.00
2018-11-26T02:03:07.920Z,99319.00
2018-11-26T02:08:10.856Z,99317.00
2018-11-26T02:13:13.810Z,99319.00
2018-11-26T02:18:16.800Z,99320.00
2018-11-26T02:23:19.718Z,99309.00
2018-11-26T02:28:22.630Z,99305.00
2018-11-26T02:33:25.586Z,99308.00
2018-11-26T02:38:28.474Z,99300.00
2018-11-26T02:43:31.460Z,99306.00
2018-11-26T02:48:34.336Z,99299.00
2018-11-26T02:53:37.232Z,99298.00
2018-11-26T02:58:40.140Z,99290.00
2018-11-26T03:03:43.089Z,99300.00
2018-11-26T03:08:46.032Z,99289.00
2018-11-26T03:13:48.926Z,99287.00
2018-11-26T03:18:51.866Z,99277.00
2018-11-26T03:23:54.788Z,99272.00
2018-11-26T03:28:57.733Z,99285.00
2018-11-26T03:34:00.624Z,99281.00
2018-11-26T03:39:04.608Z,99290.00
2018-11-26T03:44:07.605Z,99291.00
2018-11-26T03:49:10.522Z,99291.00
2018-11-26T03:54:13.488Z,99295.00
2018-11-26T03:59:16.436Z,99287.00
2018-11-26T04:04:19.399Z,99294.00
2018-11-26T04:09:22.317Z,99293.00
2018-11-26T04:14:25.239Z,99295.00
2018-11-26T04:19:28.189Z,99289.00
2018-11-26T04:24:31.083Z,99289.00
2018-11-26T04:29:34.037Z,99290.00
2018-11-26T04:34:36.950Z,99289.00
2018-11-26T04:39:39.881Z,99300.00
2018-11-26T04:44:42.809Z,99297.00
2018-11-26T04:49:45.733Z,99304.00
2018-11-26T04:54:48.711Z,99306.00
2018-11-26T04:59:51.659Z,99300.00
2018-11-26T05:04:54.581Z,99290.00
2018-11-26T05:09:57.557Z,99283.00
2018-11-26T05:15:00.573Z,99290.00
2018-11-26T05:20:06.716Z,99286.00
2018-11-26T05:25:10.638Z,99277.00
2018-11-26T05:30:13.759Z,99278.00
2018-11-26T05:35:16.693Z,99280.00
2018-11-26T05:40:20.113Z,99281.00
2018-11-26T05:45:23.049Z,99281.00
2018-11-26T05:50:25.995Z,99284.00
2018-11-26T05:55:28.947Z,99292.00
2018-11-26T06:00:33.301Z,99292.00
2018-11-26T06:05:36.230Z,99287.00
2018-11-26T06:10:39.205Z,99300.00
2018-11-26T06:15:42.166Z,99304.00
2018-11-26T06:20:45.161Z,99316.00
2018-11-26T06:25:48.089Z,99314.00
2018-11-26T06:30:51.196Z,99311.00
2018-11-26T06:35:54.158Z,99314.00
2018-11-26T06:40:57.752Z,99320.00
2018-11-26T06:46:00.632Z,99321.00
2018-11-26T06:51:04.053Z,99325.00
2018-11-26T06:56:07.048Z,99330.00
2018-11-26T07:01:10.014Z,99333.00
2018-11-26T07:06:12.906Z,99342.00
2018-11-26T07:11:15.821Z,99353.00
2018-11-26T07:16:18.771Z,99349.00
2018-11-26T07:21:21.729Z,99353.00
2018-11-26T07:26:24.755Z,99363.00
2018-11-26T07:31:27.745Z,99353.00
2018-11-26T07:36:30.764Z,99372.00
2018-11-26T07:41:33.697Z,99370.00
2018-11-26T07:46:36.684Z,99375.00
2018-11-26T07:51:39.583Z,99369.00
2018-11-26T07:56:42.592Z,99373.00
2018-11-26T08:01:45.509Z,99388.00
2018-11-26T08:06:48.467Z,99392.00
2018-11-26T08:11:51.428Z,99394.00
2018-11-26T08:16:54.421Z,99399.00
2018-11-26T08:21:57.376Z,99401.00
2018-11-26T08:27:00.300Z,99400.00
2018-11-26T08:32:03.242Z,99409.00
2018-11-26T08:38:11.913Z,99404.00
2018-11-26T08:43:24.421Z,99413.00
2018-11-26T08:48:28.374Z,99411.00
2018-11-26T08:53:31.361Z,99411.00
2018-11-26T08:58:34.315Z,99422.00
2018-11-26T09:03:42.788Z,99418.00
2018-11-26T09:08:45.761Z,99423.00
2018-11-26T09:13:48.768Z,99423.00
2018-11-26T09:18:51.881Z,99429.00
2018-11-26T09:23:55.345Z,99426.00
2018-11-26T09:28:58.269Z,99443.00
2018-11-26T09:34:01.263Z,99441.00
2018-11-26T09:39:10.033Z,99430.00
2018-11-26T09:44:13.017Z,99438.00
2018-11-26T09:49:15.982Z,99441.00
2018-11-26T09:54:25.789Z,99442.00
2018-11-26T09:59:21.846Z,99443.00
2018-11-26T10:04:24.806Z,99437.00
2018-11-26T10:09:27.776Z,99446.00
2018-11-26T10:14:30.764Z,99445.00
2018-11-26T10:19:33.725Z,99434.00
2018-11-26T10:24:36.707Z,99431.00
2018-11-26T10:29:39.676Z,99437.00
2018-11-26T10:34:42.714Z,99436.00
2018-11-26T10:39:45.654Z,99425.00
2018-11-26T10:44:48.588Z,99417.00
2018-11-26T10:49:51.461Z,99427.00
2018-11-26T10:54:54.424Z,99425.00
2018-11-26T10:59:57.479Z,99412.00
2018-11-26T11:05:00.407Z,99419.00
2018-11-26T11:10:05.702Z,99420.00
2018-11-26T11:15:11.153Z,99426.00
2018-11-26T11:20:24.904Z,99426.00
2018-11-26T11:25:27.855Z,99433.00
2018-11-26T11:30:30.822Z,99424.00
2018-11-26T11:35:34.307Z,99426.00
2018-11-26T11:40:37.275Z,99434.00
2018-11-26T11:45:40.253Z,99440.00
2018-11-26T11:50:43.206Z,99429.00
2018-11-26T11:55:46.121Z,99444.00
2018-11-26T12:00:49.538Z,99432.00
2018-11-26T12:05:52.499Z,99428.00
2018-11-26T12:10:55.450Z,99432.00
2018-11-26T12:15:58.436Z,99431.00
2018-11-26T12:21:01.382Z,99427.00
2018-11-26T12:26:05.095Z,99433.00
2018-11-26T12:31:08.042Z,99436.00
2018-11-26T12:36:11.036Z,99427.00
2018-11-26T12:41:13.989Z,99431.00
2018-11-26T12:46:17.009Z,99426.00
2018-11-26T12:51:19.985Z,99429.00
2018-11-26T12:56:22.846Z,99437.00
2018-11-26T13:01:25.788Z,99434.00
2018-11-26T13:06:28.862Z,99438.00
2018-11-26T13:11:31.918Z,99440.00
2018-11-26T13:16:34.909Z,99443.00
2018-11-26T13:21:37.846Z,99445.00
2018-11-26T13:26:40.782Z,99444.00
2018-11-26T13:31:43.752Z,99447.00
2018-11-26T13:36:46.689Z,99446.00
2018-11-26T13:41:49.598Z,99450.00
2018-11-26T13:46:53.130Z,99454.00
2018-11-26T13:51:56.213Z,99451.00
2018-11-26T13:56:59.248Z,99458.00
2018-11-26T14:02:02.217Z,99460.00
2018-11-26T14:07:05.425Z,99460.00
2018-11-26T14:12:08.448Z,99463.00
2018-11-26T14:17:11.473Z,99469.00
2018-11-26T14:22:14.401Z,99483.00
2018-11-26T14:27:17.489Z,99476.00
2018-11-26T14:32:20.611Z,99478.00
2018-11-26T14:37:23.633Z,99483.00
2018-11-26T14:42:26.599Z,99498.00
2018-11-26T14:47:29.742Z,99499.00
2018-11-26T14:52:33.604Z,99506.00
2018-11-26T14:57:36.589Z,99519.00
2018-11-26T15:02:39.757Z,99525.00
2018-11-26T15:07:42.807Z,99523.00
2018-11-26T15:12:46.748Z,99529.00
2018-11-26T15:17:49.859Z,99535.00
2018-11-26T15:22:54.489Z,99544.00
2018-11-26T15:27:59.884Z,99545.00
2018-11-26T15:33:02.834Z,99541.00
2018-11-26T15:38:06.065Z,99547.00
2018-11-26T15:43:09.038Z,99551.00
2018-11-26T15:48:12.907Z,99551.00
2018-11-26T15:53:15.958Z,99560.00
2018-11-26T15:58:23.578Z,99554.00
2018-11-26T16:03:21.834Z,99563.00
2018-11-26T16:08:24.798Z,99566.00
2018-11-26T16:13:27.861Z,99571.00
2018-11-26T16:18:30.809Z,99582.00
2018-11-26T16:23:33.793Z,99591.00
2018-11-26T16:28:36.794Z,99598.00
2018-11-26T16:33:39.711Z,99594.00
2018-11-26T16:38:42.647Z,99589.00
2018-11-26T16:43:45.646Z,99595.00
2018-11-26T16:48:48.615Z,99608.00
2018-11-26T16:53:51.618Z,99613.00
2018-11-26T16:58:55.227Z,99609.00
2018-11-26T17:03:58.254Z,99616.00
2018-11-26T17:09:01.164Z,99625.00
2018-11-26T17:14:04.613Z,99624.00
2018-11-26T17:19:07.686Z,99620.00
2018-11-26T17:24:10.709Z,99631.00
2018-11-26T17:29:13.635Z,99613.00
2018-11-26T17:34:16.642Z,99632.00
2018-11-26T17:39:19.545Z,99633.00
2018-11-26T17:44:22.656Z,99647.00
2018-11-26T17:49:25.618Z,99627.00
2018-11-26T17:54:28.596Z,99657.00
2018-11-26T17:59:31.590Z,99659.00
2018-11-26T18:04:34.515Z,99664.00
2018-11-26T18:09:37.472Z,99661.00
2018-11-26T18:14:40.539Z,99670.00
2018-11-26T18:19:43.514Z,99674.00
2018-11-26T18:24:46.618Z,99686.00
2018-11-26T18:29:49.649Z,99696.00
2018-11-26T18:34:52.691Z,99693.00
2018-11-26T18:39:55.659Z,99694.00
2018-11-26T18:44:58.624Z,99713.00
2018-11-26T18:50:01.618Z,99720.00
2018-11-26T18:55:05.944Z,99719.00
2018-11-26T19:00:16.281Z,99727.00
2018-11-26T19:05:19.852Z,99726.00
2018-11-26T19:10:28.498Z,99734.00
2018-11-26T19:15:34.212Z,99739.00
2018-11-26T19:20:37.306Z,99742.00
2018-11-26T19:25:40.358Z,99751.00
2018-11-26T19:30:43.365Z,99739.00
2018-11-26T19:35:46.364Z,99752.00
2018-11-26T19:40:49.586Z,99761.00
2018-11-26T19:45:52.660Z,99763.00
2018-11-26T19:50:55.769Z,99774.00
2018-11-26T19:55:58.716Z,99780.00
2018-11-26T20:01:01.756Z,99791.00
2018-11-26T20:06:12.998Z,99802.00
2018-11-26T20:11:16.149Z,99809.00
2018-11-26T20:16:25.729Z,99804.00
2018-11-26T20:21:28.689Z,99820.00
2018-11-26T20:26:31.652Z,99820.00
2018-11-26T20:31:34.614Z,99827.00
2018-11-26T20:36:37.705Z,99832.00
2018-11-26T20:41:40.679Z,99843.00
2018-11-26T20:46:49.021Z,99849.00
2018-11-26T20:51:46.677Z,99858.00
2018-11-26T20:56:49.579Z,99850.00
2018-11-26T21:01:52.598Z,99864.00
2018-11-26T21:06:55.637Z,99862.00
2018-11-26T21:11:58.576Z,99869.00
2018-11-26T21:17:02.035Z,99884.00
2018-11-26T21:22:05.385Z,99884.00
2018-11-26T21:27:08.334Z,99882.00
2018-11-26T21:32:11.277Z,99888.00
2018-11-26T21:37:14.270Z,99891.00
2018-11-26T21:42:17.287Z,99885.00
2018-11-26T21:47:20.204Z,99888.00
2018-11-26T21:52:23.362Z,99889.00
2018-11-26T21:57:26.325Z,99892.00
2018-11-26T22:02:29.266Z,99902.00
2018-11-26T22:07:32.289Z,99904.00
2018-11-26T22:12:35.309Z,99904.00
2018-11-26T22:17:39.139Z,99921.00
2018-11-26T22:22:42.128Z,99923.00
2018-11-26T22:27:45.228Z,99923.00
2018-11-26T22:32:48.074Z,99933.00
2018-11-26T22:37:51.057Z,99938.00
2018-11-26T22:42:54.169Z,99935.00
2018-11-26T22:48:07.212Z,99947.00
2018-11-26T22:53:10.280Z,99935.00
2018-11-26T22:58:14.488Z,99941.00
2018-11-26T23:03:20.601Z,99947.00
2018-11-26T23:08:23.673Z,99959.00
2018-11-26T23:13:26.624Z,99949.00
2018-11-26T23:18:29.545Z,99961.00
2018-11-26T23:23:32.496Z,99960.00
2018-11-26T23:28:35.484Z,99953.00
2018-11-26T23:33:38.488Z,99957.00
2018-11-26T23:38:41.481Z,99974.00
2018-11-26T23:43:44.418Z,99954.00
2018-11-26T23:48:47.420Z,99967.00
2018-11-26T23:53:50.358Z,99980.00
2018-11-26T23:58:53.205Z,99973.00
